North Waltham, Massachusetts
Current Conditions -  °F | °C
As of 7:54 PM on Monday 24 Nov 2014 (Local Time) from KBOS Reporting Station
Few Clouds Few Clouds  
Wind Chill: 62°   Ceiling: Unl
Heat Index: 62°   Visibility: 10mi
Dew Point: 56°   Wind: 20mph
Humidity: 80%   Direction: 220°SW
Pressure: 29.65"   Gusts: NA
Location:  42.3586°N, 71.0605°W
Report Text: KBOS 250054Z 22017KT 10SM FEW025 17/13 A2965 RMK AO2 PK WND 22027/0010 SLP039 T01670133
Loading
Personal Weather Stations






























Interactive Weather Map New forecast layout! Learn more

10-Day Weather Forecast

Advertisements
Track Severe Weather on mobile